createdAt,value
2023-02-03T00:00:33.553Z,86.58
2023-02-03T00:01:38.900Z,86.57
2023-02-03T00:02:42.635Z,86.43
2023-02-03T00:03:48.601Z,86.19
2023-02-03T00:04:52.808Z,86.21
2023-02-03T00:05:56.934Z,86.35
2023-02-03T00:07:00.689Z,86.24
2023-02-03T00:08:09.771Z,86.92
2023-02-03T00:09:16.395Z,86.73
2023-02-03T00:10:21.543Z,86.54
2023-02-03T00:11:31.663Z,86.49
2023-02-03T00:12:37.655Z,86.51
2023-02-03T00:13:42.195Z,86.48
2023-02-03T00:14:45.987Z,86.50
2023-02-03T00:15:49.647Z,86.63
2023-02-03T00:16:56.105Z,86.79
2023-02-03T00:17:59.844Z,86.62
2023-02-03T00:19:04.155Z,86.23
2023-02-03T00:20:19.811Z,86.11
2023-02-03T00:21:23.793Z,86.45
2023-02-03T00:22:29.061Z,86.25
2023-02-03T00:23:33.340Z,86.43
2023-02-03T00:24:39.288Z,86.52
2023-02-03T00:25:49.320Z,86.35
2023-02-03T00:26:59.965Z,86.42
2023-02-03T00:28:04.291Z,86.23
2023-02-03T00:29:09.282Z,86.36
2023-02-03T00:30:17.983Z,86.09
2023-02-03T00:31:25.253Z,86.01
2023-02-03T00:32:32.680Z,86.17
2023-02-03T00:33:39.811Z,85.88
2023-02-03T00:34:45.697Z,85.98
2023-02-03T00:35:52.329Z,86.04
2023-02-03T00:36:58.273Z,85.92
2023-02-03T00:38:06.235Z,85.75
2023-02-03T00:39:13.137Z,85.42
2023-02-03T00:40:30.508Z,85.59
2023-02-03T00:41:34.368Z,85.63
2023-02-03T00:42:38.592Z,85.31
2023-02-03T00:43:44.174Z,85.61
2023-02-03T00:44:55.798Z,85.43
2023-02-03T00:46:02.735Z,85.50
2023-02-03T00:47:08.180Z,85.52
2023-02-03T00:48:23.492Z,85.74
2023-02-03T00:49:30.487Z,85.45
2023-02-03T00:50:34.580Z,85.22
2023-02-03T00:51:45.798Z,85.38
2023-02-03T00:52:55.846Z,85.58
2023-02-03T00:54:01.004Z,85.30
2023-02-03T00:56:30.465Z,85.28
2023-02-03T00:57:34.431Z,85.01
2023-02-03T00:58:42.055Z,85.05
2023-02-03T00:59:46.230Z,84.68
2023-02-03T01:00:51.381Z,84.95
2023-02-03T01:01:57.775Z,84.99
2023-02-03T01:03:04.354Z,84.89
2023-02-03T01:04:08.842Z,84.86
2023-02-03T01:05:14.510Z,84.92
2023-02-03T01:06:22.058Z,85.03
2023-02-03T01:07:33.326Z,84.52
2023-02-03T01:08:37.202Z,84.43
2023-02-03T01:09:46.960Z,83.81
2023-02-03T01:10:51.392Z,84.42
2023-02-03T01:12:00.875Z,83.25
2023-02-03T01:13:05.294Z,83.52
2023-02-03T01:14:19.019Z,83.31
2023-02-03T01:15:23.967Z,83.03
2023-02-03T01:16:35.425Z,83.17
2023-02-03T01:17:39.145Z,82.80
2023-02-03T01:18:44.131Z,83.13
2023-02-03T01:19:54.087Z,83.14
2023-02-03T01:21:34.528Z,81.98
2023-02-03T01:22:57.504Z,80.33
2023-02-03T01:24:02.596Z,80.37
2023-02-03T01:25:18.400Z,79.75
2023-02-03T01:26:26.359Z,79.65
2023-02-03T01:27:32.282Z,79.53
2023-02-03T01:28:36.791Z,79.61
2023-02-03T01:29:42.555Z,79.87
2023-02-03T01:30:46.611Z,80.02
2023-02-03T01:32:04.662Z,80.86
2023-02-03T01:33:10.314Z,82.21
2023-02-03T01:34:23.035Z,82.31
2023-02-03T01:35:26.825Z,83.46
2023-02-03T01:36:34.369Z,83.43
2023-02-03T01:37:37.927Z,83.71
2023-02-03T01:38:42.016Z,84.29
2023-02-03T01:39:45.681Z,85.06
2023-02-03T01:40:49.396Z,85.63
2023-02-03T01:41:55.978Z,85.65
2023-02-03T01:42:59.941Z,85.76
2023-02-03T01:44:40.709Z,87.26
2023-02-03T01:45:46.415Z,86.54
2023-02-03T01:46:53.643Z,86.44
2023-02-03T01:49:47.757Z,86.24
2023-02-03T01:51:08.205Z,86.47
2023-02-03T01:52:33.353Z,86.19
2023-02-03T01:53:39.488Z,86.97
2023-02-03T01:54:50.911Z,87.08
2023-02-03T01:56:01.412Z,86.85
2023-02-03T01:57:23.886Z,86.52
2023-02-03T01:58:43.388Z,86.08
2023-02-03T01:59:54.349Z,86.26
2023-02-03T02:01:02.960Z,85.95
2023-02-03T02:03:56.463Z,86.03
2023-02-03T02:05:31.866Z,85.76
2023-02-03T02:06:57.409Z,85.56
2023-02-03T02:08:04.952Z,85.68
2023-02-03T02:09:20.206Z,85.96
2023-02-03T02:10:45.641Z,85.48
2023-02-03T02:11:57.081Z,85.12
2023-02-03T02:13:08.820Z,84.97
2023-02-03T02:14:26.151Z,84.67
2023-02-03T02:16:24.010Z,84.76
2023-02-03T02:18:34.308Z,84.27
2023-02-03T02:20:16.264Z,84.01
2023-02-03T02:22:16.225Z,84.32
2023-02-03T02:24:19.341Z,83.75
2023-02-03T02:25:47.621Z,84.04
2023-02-03T02:28:00.642Z,83.55
2023-02-03T02:30:27.535Z,83.18
2023-02-03T02:32:06.277Z,82.78
2023-02-03T02:33:10.928Z,82.63
2023-02-03T02:34:31.625Z,82.65
2023-02-03T02:36:12.277Z,82.51
2023-02-03T02:37:54.329Z,82.68
2023-02-03T02:39:21.897Z,83.15
2023-02-03T02:40:50.880Z,83.09
2023-02-03T02:42:13.953Z,82.94
2023-02-03T02:43:44.522Z,82.73
2023-02-03T02:45:23.152Z,82.47
2023-02-03T02:46:52.151Z,82.53
2023-02-03T02:48:58.619Z,82.56
2023-02-03T02:50:25.849Z,82.90
2023-02-03T02:51:35.343Z,82.71
2023-02-03T02:52:50.398Z,83.02
2023-02-03T02:54:12.488Z,82.36
2023-02-03T02:55:33.994Z,82.23
2023-02-03T02:56:44.029Z,82.32
2023-02-03T02:57:57.859Z,82.02
2023-02-03T02:59:06.353Z,82.13
2023-02-03T03:01:59.442Z,82.31
2023-02-03T03:03:24.299Z,82.60
2023-02-03T03:04:37.893Z,81.98
2023-02-03T03:05:53.976Z,82.34
2023-02-03T03:07:12.338Z,81.99
2023-02-03T03:10:11.672Z,81.50
2023-02-03T03:11:18.412Z,81.74
2023-02-03T03:12:28.534Z,81.37
2023-02-03T03:13:44.822Z,81.65
2023-02-03T03:15:30.073Z,81.12
2023-02-03T03:16:40.821Z,81.55
2023-02-03T03:18:32.833Z,81.69
2023-02-03T03:19:54.205Z,81.88
2023-02-03T03:21:06.243Z,82.14
2023-02-03T03:22:25.936Z,82.28
2023-02-03T03:23:43.183Z,82.33
2023-02-03T03:24:54.624Z,82.55
2023-02-03T03:26:31.721Z,82.38
2023-02-03T03:27:46.029Z,82.61
2023-02-03T03:29:07.070Z,83.07
2023-02-03T03:30:38.554Z,82.99
2023-02-03T03:31:49.300Z,82.99
2023-02-03T03:32:54.105Z,83.50
2023-02-03T03:33:58.033Z,83.47
2023-02-03T03:35:05.716Z,83.20
2023-02-03T03:36:15.403Z,83.23
2023-02-03T03:37:30.001Z,82.98
2023-02-03T03:38:45.435Z,83.50
2023-02-03T03:40:29.117Z,83.33
2023-02-03T03:41:47.355Z,83.41
2023-02-03T03:43:11.701Z,83.67
2023-02-03T03:44:19.450Z,83.34
2023-02-03T03:45:49.440Z,82.88
2023-02-03T03:47:16.776Z,82.89
2023-02-03T03:48:32.542Z,82.72
2023-02-03T03:49:44.652Z,82.89
2023-02-03T03:51:01.345Z,82.77
2023-02-03T03:52:12.486Z,82.59
2023-02-03T03:53:20.292Z,82.69
2023-02-03T03:54:39.756Z,82.45
2023-02-03T03:55:54.280Z,82.17
2023-02-03T03:57:41.022Z,82.14
2023-02-03T03:58:49.883Z,82.00
2023-02-03T03:59:55.447Z,81.91
2023-02-03T04:01:07.575Z,82.10
2023-02-03T04:02:15.515Z,82.21
2023-02-03T04:03:28.702Z,82.10
2023-02-03T04:04:46.937Z,81.73
2023-02-03T04:05:51.770Z,82.11
2023-02-03T04:07:01.040Z,81.90
2023-02-03T04:08:08.570Z,81.98
2023-02-03T04:09:17.656Z,82.10
2023-02-03T04:10:32.041Z,82.25
2023-02-03T04:11:56.144Z,82.19
2023-02-03T04:13:01.323Z,82.20
2023-02-03T04:14:08.332Z,82.40
2023-02-03T04:15:14.099Z,82.38
2023-02-03T04:16:23.903Z,82.53
2023-02-03T04:17:28.793Z,82.41
2023-02-03T04:18:33.037Z,82.55
2023-02-03T04:19:39.468Z,82.81
2023-02-03T04:20:52.832Z,82.93
2023-02-03T04:21:58.218Z,83.09
2023-02-03T04:23:02.605Z,82.84
2023-02-03T04:24:08.837Z,82.86
2023-02-03T04:25:18.309Z,83.09
2023-02-03T04:26:23.284Z,82.78
2023-02-03T04:27:29.041Z,83.11
2023-02-03T04:28:32.903Z,82.85
2023-02-03T04:29:41.161Z,82.94
2023-02-03T04:30:48.845Z,82.77
2023-02-03T04:31:54.476Z,82.91
2023-02-03T04:33:01.369Z,82.67
2023-02-03T04:34:07.348Z,82.72
2023-02-03T04:35:19.334Z,82.85
2023-02-03T04:36:27.151Z,82.98
2023-02-03T04:37:33.138Z,82.98
2023-02-03T04:38:40.406Z,83.08
2023-02-03T04:39:44.243Z,83.08
2023-02-03T04:40:51.036Z,82.84
2023-02-03T04:42:00.218Z,82.48
2023-02-03T04:43:08.671Z,82.81
2023-02-03T04:44:18.163Z,82.54
2023-02-03T04:45:28.750Z,82.59
2023-02-03T04:46:35.905Z,82.15
2023-02-03T04:47:46.132Z,82.40
2023-02-03T04:48:53.697Z,82.21
2023-02-03T04:49:57.543Z,82.05
2023-02-03T04:51:08.767Z,82.18
2023-02-03T04:52:20.701Z,81.96
2023-02-03T04:53:29.403Z,81.79
2023-02-03T04:54:39.015Z,81.87
2023-02-03T04:55:50.161Z,82.09
2023-02-03T04:56:55.089Z,82.42
2023-02-03T04:58:03.947Z,82.39
2023-02-03T04:59:10.353Z,82.13
2023-02-03T05:00:20.619Z,82.38
2023-02-03T05:01:26.530Z,82.63
2023-02-03T05:02:30.910Z,82.19
2023-02-03T05:03:35.236Z,82.33
2023-02-03T05:04:43.071Z,82.41
2023-02-03T05:05:49.576Z,82.26
2023-02-03T05:06:53.393Z,82.75
2023-02-03T05:08:01.863Z,82.50
2023-02-03T05:09:11.342Z,82.30
2023-02-03T05:10:18.562Z,82.45
2023-02-03T05:11:36.758Z,82.49
2023-02-03T05:12:44.503Z,82.58
2023-02-03T05:13:50.055Z,82.55
2023-02-03T05:14:56.180Z,82.44
2023-02-03T05:16:04.499Z,82.37
2023-02-03T05:17:08.504Z,82.63
2023-02-03T05:18:19.497Z,82.49
2023-02-03T05:19:31.058Z,82.45
2023-02-03T05:20:40.539Z,82.66
2023-02-03T05:21:48.709Z,82.94
2023-02-03T05:22:54.745Z,83.32
2023-02-03T05:24:00.965Z,83.26
2023-02-03T05:25:05.515Z,83.18
2023-02-03T05:26:11.973Z,83.53
2023-02-03T05:27:22.255Z,83.17
2023-02-03T05:28:26.416Z,83.31
2023-02-03T05:29:30.154Z,83.51
2023-02-03T05:30:35.358Z,83.31
2023-02-03T05:31:45.148Z,83.33
2023-02-03T05:32:53.535Z,83.59
2023-02-03T05:34:00.941Z,83.26
2023-02-03T05:35:07.353Z,83.40
2023-02-03T05:36:14.563Z,83.59
2023-02-03T05:37:18.368Z,83.55
2023-02-03T05:38:23.389Z,83.43
2023-02-03T05:39:26.837Z,83.53
2023-02-03T05:40:49.092Z,83.18
2023-02-03T05:41:52.779Z,83.07
2023-02-03T05:42:56.643Z,83.09
2023-02-03T05:44:00.266Z,83.50
2023-02-03T05:45:04.679Z,83.70
2023-02-03T05:46:14.723Z,83.42
2023-02-03T05:47:22.517Z,83.72
2023-02-03T05:48:30.758Z,83.61
2023-02-03T05:49:41.665Z,83.87
2023-02-03T05:50:45.910Z,83.98
2023-02-03T05:51:54.660Z,83.61
2023-02-03T05:53:02.856Z,83.58
2023-02-03T05:54:08.253Z,83.33
2023-02-03T05:55:26.103Z,83.29
2023-02-03T05:56:33.936Z,83.12
2023-02-03T05:57:38.884Z,83.74
2023-02-03T05:58:44.995Z,83.86
2023-02-03T05:59:51.449Z,83.54
2023-02-03T06:00:57.387Z,83.37
2023-02-03T06:02:09.513Z,83.42
2023-02-03T06:03:16.868Z,83.45
2023-02-03T06:04:21.553Z,83.09
2023-02-03T06:05:30.749Z,83.16
2023-02-03T06:06:40.229Z,83.42
2023-02-03T06:07:51.334Z,83.42
2023-02-03T06:08:57.347Z,83.42
2023-02-03T06:10:00.943Z,83.66
2023-02-03T06:11:08.537Z,83.47
2023-02-03T06:12:15.318Z,83.79
2023-02-03T06:13:24.960Z,83.78
2023-02-03T06:14:39.089Z,84.03
2023-02-03T06:15:49.297Z,84.19
2023-02-03T06:16:55.640Z,84.17
2023-02-03T06:18:01.704Z,83.78
2023-02-03T06:19:06.964Z,84.00
2023-02-03T06:20:19.854Z,83.63
2023-02-03T06:21:25.379Z,83.29
2023-02-03T06:22:30.617Z,83.49
2023-02-03T06:23:34.934Z,83.22
2023-02-03T06:24:43.365Z,83.49
2023-02-03T06:27:20.925Z,83.32
2023-02-03T06:28:24.608Z,83.50
2023-02-03T06:29:29.524Z,83.58
2023-02-03T06:30:34.787Z,83.46
2023-02-03T06:31:39.528Z,83.26
2023-02-03T06:32:47.470Z,83.34
2023-02-03T06:33:53.164Z,83.24
2023-02-03T06:35:02.238Z,83.31
2023-02-03T06:36:06.373Z,83.40
2023-02-03T06:37:19.776Z,83.10
2023-02-03T06:38:27.531Z,82.81
2023-02-03T06:39:37.876Z,82.75
2023-02-03T06:40:44.062Z,82.97
2023-02-03T06:41:49.218Z,82.84
2023-02-03T06:42:54.648Z,82.96
2023-02-03T07:21:20.257Z,79.72
2023-02-03T07:22:26.113Z,80.05
2023-02-03T07:23:31.034Z,79.55
2023-02-03T07:24:48.476Z,79.72
2023-02-03T07:25:55.240Z,79.34
2023-02-03T07:27:00.863Z,79.60
2023-02-03T07:28:08.372Z,79.11
2023-02-03T07:29:14.559Z,79.08
2023-02-03T07:30:24.541Z,79.11
2023-02-03T07:31:37.620Z,78.97
2023-02-03T07:32:54.753Z,78.97
2023-02-03T07:34:01.416Z,78.52
2023-02-03T07:35:09.857Z,78.75
2023-02-03T07:36:13.399Z,78.61
2023-02-03T07:37:18.778Z,78.02
2023-02-03T07:38:28.462Z,77.71
2023-02-03T07:39:34.315Z,77.94
2023-02-03T07:40:39.548Z,77.85
2023-02-03T07:41:46.637Z,77.40
2023-02-03T07:42:51.093Z,77.21
2023-02-03T07:43:58.020Z,77.66
2023-02-03T07:45:03.873Z,77.81
2023-02-03T07:46:09.442Z,76.49
2023-02-03T07:47:17.788Z,76.62
2023-02-03T07:49:10.898Z,75.50
2023-02-03T07:50:21.455Z,75.17
2023-02-03T07:51:37.595Z,74.99
2023-02-03T07:52:42.228Z,74.56
2023-02-03T07:53:47.129Z,74.07
2023-02-03T07:54:53.463Z,74.92
2023-02-03T07:56:05.599Z,73.90
2023-02-03T07:57:10.782Z,74.79
2023-02-03T07:58:15.559Z,74.32
2023-02-03T07:59:19.631Z,73.31
2023-02-03T08:00:26.611Z,74.04
2023-02-03T08:01:34.843Z,73.97
2023-02-03T08:02:48.052Z,73.56
2023-02-03T08:03:55.191Z,73.72
2023-02-03T08:04:59.205Z,73.45
2023-02-03T08:06:02.869Z,73.26
2023-02-03T08:07:06.497Z,72.26
2023-02-03T08:08:10.022Z,71.31
2023-02-03T08:09:13.751Z,71.45
2023-02-03T08:10:18.518Z,71.43
2023-02-03T08:11:22.452Z,71.62
2023-02-03T08:12:26.180Z,70.99
2023-02-03T08:13:30.804Z,70.66
2023-02-03T08:14:34.500Z,70.43
2023-02-03T08:15:38.103Z,70.94
2023-02-03T08:16:47.783Z,70.67
2023-02-03T08:17:59.183Z,70.62
2023-02-03T08:19:06.431Z,70.21
2023-02-03T08:20:12.896Z,69.89
2023-02-03T08:21:19.306Z,69.74
2023-02-03T08:22:23.515Z,69.17
2023-02-03T08:23:27.688Z,68.48
2023-02-03T08:24:32.411Z,68.84
2023-02-03T08:25:50.958Z,68.74
2023-02-03T08:27:11.621Z,68.48
2023-02-03T08:28:17.377Z,68.65
2023-02-03T08:29:26.790Z,68.21
2023-02-03T08:30:37.902Z,68.41
2023-02-03T08:31:47.892Z,67.92
2023-02-03T08:33:01.073Z,68.25
2023-02-03T08:34:09.960Z,67.84
2023-02-03T08:35:16.495Z,67.97
2023-02-03T08:36:22.442Z,67.78
2023-02-03T08:37:30.147Z,68.12
2023-02-03T08:38:37.238Z,68.11
2023-02-03T08:39:42.235Z,68.04
2023-02-03T08:42:18.621Z,67.69
2023-02-03T08:43:26.727Z,67.45
2023-02-03T08:44:37.597Z,67.81
2023-02-03T08:45:43.097Z,67.54
2023-02-03T08:46:51.465Z,67.28
2023-02-03T08:47:58.564Z,66.97
2023-02-03T08:49:11.782Z,67.05
2023-02-03T08:50:22.359Z,66.74
2023-02-03T08:51:30.761Z,66.37
2023-02-03T08:52:36.488Z,66.75
2023-02-03T08:53:42.742Z,66.44
2023-02-03T08:54:55.353Z,66.34
2023-02-03T08:57:42.238Z,65.61
2023-02-03T08:58:50.570Z,65.29
2023-02-03T08:59:55.855Z,65.36
2023-02-03T09:01:14.301Z,65.03
2023-02-03T09:02:22.023Z,64.90
2023-02-03T09:03:26.374Z,64.72
2023-02-03T09:04:30.485Z,64.59
2023-02-03T09:05:38.945Z,64.94
2023-02-03T09:06:52.864Z,64.83
2023-02-03T09:07:58.449Z,64.20
2023-02-03T09:09:04.452Z,64.71
2023-02-03T09:10:17.171Z,64.69
2023-02-03T09:11:21.506Z,64.58
2023-02-03T09:12:27.277Z,63.73
2023-02-03T09:13:30.855Z,63.46
2023-02-03T09:14:36.142Z,63.05
2023-02-03T09:15:44.637Z,63.19
2023-02-03T09:16:48.833Z,62.42
2023-02-03T09:17:53.792Z,62.52
2023-02-03T09:18:57.616Z,63.08
2023-02-03T09:20:01.555Z,63.14
2023-02-03T09:21:15.992Z,62.41
2023-02-03T09:22:31.228Z,61.97
2023-02-03T09:23:36.972Z,62.13
2023-02-03T09:24:44.048Z,61.79
2023-02-03T09:25:51.264Z,61.79
2023-02-03T09:26:56.076Z,61.95
2023-02-03T09:28:03.077Z,61.21
2023-02-03T09:29:08.503Z,60.68
2023-02-03T09:30:22.792Z,60.81
2023-02-03T09:31:36.637Z,60.43
2023-02-03T09:32:50.402Z,60.39
2023-02-03T09:33:55.854Z,59.53
2023-02-03T09:34:59.933Z,59.75
2023-02-03T09:36:06.247Z,59.91
2023-02-03T09:37:10.479Z,59.54
2023-02-03T09:38:14.154Z,59.43
2023-02-03T09:39:18.752Z,60.36
2023-02-03T09:40:35.310Z,60.87
2023-02-03T09:41:50.732Z,59.54
2023-02-03T09:43:43.261Z,61.35
2023-02-03T09:45:18.713Z,59.65
2023-02-03T09:46:31.145Z,60.68
2023-02-03T09:47:41.753Z,63.18
2023-02-03T09:50:54.771Z,61.48
2023-02-03T09:52:25.960Z,59.40
2023-02-03T09:53:59.832Z,58.75
2023-02-03T09:55:39.016Z,58.33
2023-02-03T09:56:52.580Z,58.21
2023-02-03T09:58:38.262Z,57.90
2023-02-03T09:59:42.967Z,58.41
2023-02-03T10:01:06.819Z,58.13
2023-02-03T10:02:13.434Z,58.04
2023-02-03T10:04:08.239Z,58.56
2023-02-03T10:05:49.116Z,57.57
2023-02-03T10:07:05.240Z,58.86
2023-02-03T10:08:21.787Z,59.79
2023-02-03T10:10:23.265Z,60.87
2023-02-03T10:12:03.485Z,61.33
2023-02-03T10:13:33.695Z,62.99
2023-02-03T10:15:01.557Z,63.67
2023-02-03T10:16:17.221Z,63.99
2023-02-03T10:17:38.990Z,65.02
2023-02-03T10:18:54.071Z,65.74
2023-02-03T10:20:09.585Z,65.57
2023-02-03T10:21:33.850Z,65.77
2023-02-03T10:23:00.491Z,66.34
2023-02-03T10:24:49.082Z,66.73
2023-02-03T10:25:58.079Z,66.92
2023-02-03T10:27:07.960Z,66.85
2023-02-03T10:28:30.234Z,67.82
2023-02-03T10:29:43.133Z,67.54
2023-02-03T10:31:01.260Z,67.84
2023-02-03T10:32:16.636Z,67.91
2023-02-03T10:33:23.050Z,68.38
2023-02-03T10:34:27.335Z,68.55
2023-02-03T10:36:10.804Z,69.71
2023-02-03T10:37:37.280Z,68.89
2023-02-03T10:39:45.446Z,69.56
2023-02-03T10:40:51.918Z,70.52
2023-02-03T10:41:56.355Z,70.43
2023-02-03T10:43:22.360Z,70.32
2023-02-03T10:44:51.307Z,70.71
2023-02-03T10:46:14.132Z,70.99
2023-02-03T10:47:53.021Z,71.70
2023-02-03T10:48:59.168Z,71.15
2023-02-03T10:50:17.198Z,72.65
2023-02-03T10:51:44.351Z,72.69
2023-02-03T10:52:49.816Z,72.82
2023-02-03T10:53:55.875Z,73.35
2023-02-03T10:55:31.912Z,73.57
2023-02-03T10:56:42.973Z,74.38
2023-02-03T10:57:50.721Z,75.00
2023-02-03T10:58:59.480Z,75.03
2023-02-03T11:00:35.282Z,75.87
2023-02-03T11:01:49.657Z,76.40
2023-02-03T11:03:11.023Z,77.05
2023-02-03T11:04:34.568Z,77.87
2023-02-03T11:05:43.147Z,78.53
2023-02-03T11:07:07.561Z,78.84
2023-02-03T11:08:35.436Z,78.89
2023-02-03T11:09:43.160Z,79.47
2023-02-03T11:10:48.334Z,79.96
2023-02-03T11:12:17.334Z,80.92
2023-02-03T11:13:27.489Z,81.32
2023-02-03T11:14:48.143Z,82.46
2023-02-03T11:16:22.229Z,82.18
2023-02-03T11:17:30.615Z,82.64
2023-02-03T11:18:59.557Z,83.02
2023-02-03T11:20:17.545Z,83.58
2023-02-03T11:21:42.938Z,83.83
2023-02-03T11:22:57.258Z,83.61
2023-02-03T11:24:29.793Z,85.13
2023-02-03T11:25:35.710Z,85.10
2023-02-03T11:26:56.805Z,85.03
2023-02-03T11:28:09.399Z,85.42
2023-02-03T11:29:28.483Z,85.55
2023-02-03T11:30:39.805Z,85.96
2023-02-03T11:31:54.563Z,86.56
2023-02-03T11:33:02.963Z,86.45
2023-02-03T11:34:26.144Z,86.72
2023-02-03T11:35:40.891Z,86.75
2023-02-03T11:36:46.603Z,87.41
2023-02-03T11:37:58.029Z,87.76
2023-02-03T11:39:36.728Z,88.12
2023-02-03T11:40:44.047Z,87.67
2023-02-03T11:41:50.509Z,87.45
2023-02-03T11:43:02.192Z,87.19
2023-02-03T11:44:31.983Z,87.88
2023-02-03T11:45:54.318Z,88.04
2023-02-03T11:47:29.558Z,88.76
2023-02-03T11:49:04.137Z,89.19
2023-02-03T11:50:30.840Z,89.36
2023-02-03T11:51:51.676Z,89.71
2023-02-03T11:53:55.177Z,89.35
2023-02-03T11:55:15.613Z,91.25
2023-02-03T11:56:54.285Z,91.98
2023-02-03T11:58:33.747Z,91.63
2023-02-03T12:00:13.626Z,91.67
2023-02-03T12:01:57.859Z,92.16
2023-02-03T12:03:20.455Z,91.67
2023-02-03T12:05:01.228Z,91.47
2023-02-03T12:06:38.364Z,91.71
2023-02-03T12:08:38.095Z,91.40
2023-02-03T12:10:43.846Z,91.43
2023-02-03T12:12:37.290Z,91.43
2023-02-03T12:14:31.720Z,91.54
2023-02-03T12:16:05.169Z,91.88
2023-02-03T12:17:47.159Z,92.11
2023-02-03T12:19:20.226Z,93.11
2023-02-03T12:20:57.192Z,93.14
2023-02-03T12:22:10.578Z,92.48
2023-02-03T12:23:27.195Z,92.42
2023-02-03T12:24:45.677Z,92.07
2023-02-03T12:26:22.645Z,91.91
2023-02-03T12:27:28.015Z,91.90
2023-02-03T12:28:50.482Z,91.74
2023-02-03T12:30:23.125Z,91.78
2023-02-03T12:31:52.347Z,92.19
2023-02-03T12:33:03.407Z,91.60
2023-02-03T12:34:38.505Z,93.29
2023-02-03T12:36:08.547Z,92.88
2023-02-03T12:37:36.843Z,92.92
2023-02-03T12:38:56.631Z,92.94
2023-02-03T12:40:46.048Z,93.00
2023-02-03T12:42:22.375Z,92.35
2023-02-03T12:43:43.196Z,92.60
2023-02-03T12:45:06.834Z,93.15
2023-02-03T12:46:31.005Z,92.89
2023-02-03T12:48:07.444Z,93.50
2023-02-03T12:49:43.638Z,94.44
2023-02-03T12:50:56.670Z,93.69
2023-02-03T12:52:22.944Z,94.14
2023-02-03T12:53:58.244Z,93.68
2023-02-03T12:55:51.900Z,93.68
2023-02-03T12:57:16.503Z,93.63
2023-02-03T12:58:40.107Z,94.33
2023-02-03T12:59:52.425Z,93.90
2023-02-03T13:01:25.187Z,94.74
2023-02-03T13:02:43.395Z,94.44
2023-02-03T13:04:09.242Z,94.69
2023-02-03T13:05:31.291Z,94.54
2023-02-03T13:07:15.431Z,94.21
2023-02-03T13:08:26.369Z,94.58
2023-02-03T13:10:35.428Z,94.58
2023-02-03T13:11:57.539Z,94.79
2023-02-03T13:13:07.508Z,95.11
2023-02-03T13:14:37.145Z,94.74
2023-02-03T13:15:48.096Z,94.87
2023-02-03T13:17:22.290Z,95.09
2023-02-03T13:18:43.643Z,95.11
2023-02-03T13:20:34.331Z,95.32
2023-02-03T13:21:42.115Z,95.21
2023-02-03T13:22:53.108Z,95.41
2023-02-03T13:24:37.893Z,95.35
2023-02-03T13:26:05.780Z,96.04
2023-02-03T13:27:36.865Z,95.97
2023-02-03T13:29:24.483Z,96.40
2023-02-03T13:30:51.279Z,96.44
2023-02-03T13:32:19.364Z,97.55
2023-02-03T13:33:34.484Z,97.25
2023-02-03T13:35:40.920Z,97.32
2023-02-03T13:37:14.537Z,97.82
2023-02-03T13:38:49.277Z,98.09
2023-02-03T13:40:13.104Z,98.11
2023-02-03T13:41:38.489Z,98.64
2023-02-03T13:43:01.603Z,98.43
2023-02-03T13:44:12.962Z,98.43
2023-02-03T13:46:06.320Z,98.89
2023-02-03T13:47:22.081Z,98.86
2023-02-03T13:49:02.503Z,98.50
2023-02-03T13:50:24.517Z,98.52
2023-02-03T13:51:38.312Z,98.49
2023-02-03T13:53:20.639Z,98.77
2023-02-03T13:54:43.819Z,98.47
2023-02-03T13:56:05.153Z,99.35
2023-02-03T13:57:38.266Z,100.00
2023-02-03T13:58:58.526Z,100.00
2023-02-03T14:01:08.300Z,100.00
2023-02-03T14:02:28.536Z,100.00
2023-02-03T14:03:37.175Z,100.00
2023-02-03T14:04:46.782Z,100.00
2023-02-03T14:05:56.420Z,100.00
2023-02-03T14:07:30.418Z,100.00
2023-02-03T14:08:35.914Z,100.00
2023-02-03T14:09:41.397Z,100.00
2023-02-03T14:13:00.251Z,100.00
2023-02-03T14:14:13.142Z,100.00
2023-02-03T14:15:26.301Z,100.00
2023-02-03T14:16:46.471Z,100.00
2023-02-03T14:17:58.302Z,100.00
2023-02-03T14:19:08.068Z,100.00
2023-02-03T14:20:43.673Z,100.00
2023-02-03T14:22:15.918Z,100.00
2023-02-03T14:23:34.070Z,100.00
2023-02-03T14:24:54.970Z,100.00
2023-02-03T14:26:15.320Z,100.00
2023-02-03T14:27:29.264Z,100.00
2023-02-03T14:28:46.777Z,100.00
2023-02-03T14:30:20.864Z,100.00
2023-02-03T14:31:48.963Z,100.00
2023-02-03T14:33:00.956Z,100.00
2023-02-03T14:34:17.318Z,100.00
2023-02-03T14:35:40.705Z,100.00
2023-02-03T14:37:03.925Z,100.00
2023-02-03T14:38:54.176Z,100.00
2023-02-03T14:40:14.799Z,100.00
2023-02-03T14:41:41.360Z,100.00
2023-02-03T14:43:29.060Z,100.00
2023-02-03T14:45:28.268Z,100.00
2023-02-03T14:46:56.348Z,100.00
2023-02-03T14:48:27.211Z,100.00
2023-02-03T14:50:08.151Z,100.00
2023-02-03T14:52:21.389Z,100.00
2023-02-03T14:54:04.065Z,100.00
2023-02-03T14:55:46.376Z,100.00
2023-02-03T14:57:36.727Z,100.00
2023-02-03T14:59:01.171Z,100.00
2023-02-03T15:00:34.506Z,100.00
2023-02-03T15:01:42.483Z,100.00
2023-02-03T15:03:10.552Z,100.00
2023-02-03T15:04:19.985Z,100.00
2023-02-03T15:05:35.421Z,100.00
2023-02-03T15:06:49.397Z,100.00
2023-02-03T15:07:57.060Z,100.00
2023-02-03T15:09:14.072Z,100.00
2023-02-03T15:10:24.659Z,100.00
2023-02-03T15:11:58.988Z,100.00
2023-02-03T15:13:03.335Z,100.00
2023-02-03T15:14:31.420Z,100.00
2023-02-03T15:15:43.734Z,100.00
2023-02-03T15:17:02.664Z,100.00
2023-02-03T15:18:49.160Z,100.00
2023-02-03T15:19:56.152Z,100.00
2023-02-03T15:21:04.975Z,100.00
2023-02-03T15:22:29.015Z,100.00
2023-02-03T15:23:49.772Z,100.00
2023-02-03T15:25:01.317Z,100.00
2023-02-03T15:26:23.795Z,100.00
2023-02-03T15:27:32.860Z,100.00
2023-02-03T15:28:36.740Z,100.00
2023-02-03T15:29:46.142Z,100.00
2023-02-03T15:31:22.912Z,100.00
2023-02-03T15:32:39.822Z,100.00
2023-02-03T15:33:46.764Z,100.00
2023-02-03T15:34:53.694Z,100.00
2023-02-03T15:36:35.819Z,100.00
2023-02-03T15:38:02.459Z,100.00
2023-02-03T15:39:46.168Z,100.00
2023-02-03T15:40:57.890Z,100.00
2023-02-03T15:42:08.692Z,100.00
2023-02-03T15:43:30.507Z,100.00
2023-02-03T15:44:50.575Z,100.00
2023-02-03T15:46:36.163Z,100.00
2023-02-03T15:48:00.364Z,100.00
2023-02-03T15:49:28.379Z,100.00
2023-02-03T15:50:47.950Z,100.00
2023-02-03T15:52:10.321Z,100.00
2023-02-03T15:53:46.463Z,100.00
2023-02-03T15:55:12.552Z,100.00
2023-02-03T15:56:35.517Z,100.00
2023-02-03T15:57:42.972Z,100.00
2023-02-03T15:58:51.881Z,100.00
2023-02-03T16:00:09.618Z,100.00
2023-02-03T16:01:22.468Z,100.00
2023-02-03T16:03:03.207Z,100.00
2023-02-03T16:04:22.565Z,100.00
2023-02-03T16:05:38.435Z,100.00
2023-02-03T16:06:52.349Z,100.00
2023-02-03T16:08:20.467Z,100.00
2023-02-03T16:09:41.517Z,100.00
2023-02-03T16:10:53.078Z,100.00
2023-02-03T16:12:28.441Z,100.00
2023-02-03T16:13:45.439Z,100.00
2023-02-03T16:14:55.040Z,100.00
2023-02-03T16:16:28.560Z,100.00
2023-02-03T16:17:40.997Z,100.00
2023-02-03T16:18:58.600Z,100.00
2023-02-03T16:20:24.600Z,100.00
2023-02-03T16:21:54.065Z,100.00
2023-02-03T16:23:30.057Z,100.00
2023-02-03T16:24:33.973Z,100.00
2023-02-03T16:25:40.489Z,100.00
2023-02-03T16:26:45.085Z,100.00
2023-02-03T16:28:32.376Z,100.00
2023-02-03T16:29:59.166Z,100.00
2023-02-03T16:31:45.071Z,100.00
2023-02-03T16:33:46.925Z,100.00
2023-02-03T16:35:17.823Z,100.00
2023-02-03T16:36:43.684Z,100.00
2023-02-03T16:38:09.453Z,100.00
2023-02-03T16:39:42.855Z,100.00
2023-02-03T16:41:12.041Z,100.00
2023-02-03T16:43:03.999Z,100.00
2023-02-03T16:44:46.291Z,100.00
2023-02-03T16:46:17.629Z,100.00
2023-02-03T16:47:54.319Z,100.00
2023-02-03T16:49:27.031Z,100.00
2023-02-03T16:50:59.317Z,100.00
2023-02-03T16:52:10.076Z,100.00
2023-02-03T16:53:23.074Z,100.00
2023-02-03T16:54:28.951Z,100.00
2023-02-03T16:55:33.295Z,100.00
2023-02-03T16:56:42.104Z,100.00
2023-02-03T16:57:46.491Z,100.00
2023-02-03T16:58:50.263Z,100.00
2023-02-03T16:59:54.111Z,100.00
2023-02-03T17:01:09.772Z,100.00
2023-02-03T17:02:33.416Z,100.00
2023-02-03T17:03:41.942Z,100.00
2023-02-03T17:04:49.116Z,100.00
2023-02-03T17:05:58.652Z,100.00
2023-02-03T17:07:06.910Z,100.00
2023-02-03T17:08:24.968Z,100.00
2023-02-03T17:09:37.316Z,100.00
2023-02-03T17:10:46.778Z,100.00
2023-02-03T17:11:55.164Z,100.00
2023-02-03T17:13:04.128Z,100.00
2023-02-03T17:14:09.447Z,100.00